sensor_id;sensor_type;location;lat;lon;timestamp;P1;durP1;ratioP1;P2;durP2;ratioP2
19374;SDS011;9823;50.936;4.046;2023-04-29T00:00:21;121.87;;;48.50;;
19374;SDS011;9823;50.936;4.046;2023-04-29T00:02:47;150.80;;;54.03;;
19374;SDS011;9823;50.936;4.046;2023-04-29T00:05:15;164.33;;;56.60;;
19374;SDS011;9823;50.936;4.046;2023-04-29T00:07:42;153.53;;;53.53;;
19374;SDS011;9823;50.936;4.046;2023-04-29T00:10:08;165.40;;;60.53;;
19374;SDS011;9823;50.936;4.046;2023-04-29T00:12:34;161.50;;;57.73;;
19374;SDS011;9823;50.936;4.046;2023-04-29T00:15:00;158.50;;;60.03;;
19374;SDS011;9823;50.936;4.046;2023-04-29T00:17:28;159.03;;;58.37;;
19374;SDS011;9823;50.936;4.046;2023-04-29T00:19:54;159.37;;;57.70;;
19374;SDS011;9823;50.936;4.046;2023-04-29T00:22:20;156.03;;;56.23;;
19374;SDS011;9823;50.936;4.046;2023-04-29T00:24:46;141.03;;;50.83;;
19374;SDS011;9823;50.936;4.046;2023-04-29T00:27:12;122.73;;;46.23;;
19374;SDS011;9823;50.936;4.046;2023-04-29T00:29:39;101.63;;;39.50;;
19374;SDS011;9823;50.936;4.046;2023-04-29T00:32:11;100.17;;;38.13;;
19374;SDS011;9823;50.936;4.046;2023-04-29T00:34:37;88.67;;;34.50;;
19374;SDS011;9823;50.936;4.046;2023-04-29T00:37:03;88.57;;;35.80;;
19374;SDS011;9823;50.936;4.046;2023-04-29T00:39:29;79.07;;;32.37;;
19374;SDS011;9823;50.936;4.046;2023-04-29T00:41:55;76.63;;;32.17;;
19374;SDS011;9823;50.936;4.046;2023-04-29T00:44:21;73.63;;;30.83;;
19374;SDS011;9823;50.936;4.046;2023-04-29T00:46:47;69.97;;;30.70;;
19374;SDS011;9823;50.936;4.046;2023-04-29T00:49:18;67.27;;;30.70;;
19374;SDS011;9823;50.936;4.046;2023-04-29T00:51:44;73.43;;;29.23;;
19374;SDS011;9823;50.936;4.046;2023-04-29T00:54:10;72.00;;;29.33;;
19374;SDS011;9823;50.936;4.046;2023-04-29T00:56:36;68.47;;;29.10;;
19374;SDS011;9823;50.936;4.046;2023-04-29T00:59:07;82.00;;;30.50;;
19374;SDS011;9823;50.936;4.046;2023-04-29T01:01:34;76.90;;;32.63;;
19374;SDS011;9823;50.936;4.046;2023-04-29T01:04:01;76.50;;;32.27;;
19374;SDS011;9823;50.936;4.046;2023-04-29T01:06:37;76.77;;;33.50;;
19374;SDS011;9823;50.936;4.046;2023-04-29T01:11:44;61.33;;;27.20;;
19374;SDS011;9823;50.936;4.046;2023-04-29T01:14:14;69.63;;;28.50;;
19374;SDS011;9823;50.936;4.046;2023-04-29T01:16:46;68.90;;;28.60;;
19374;SDS011;9823;50.936;4.046;2023-04-29T01:21:51;82.50;;;33.87;;
19374;SDS011;9823;50.936;4.046;2023-04-29T01:24:17;90.33;;;34.67;;
19374;SDS011;9823;50.936;4.046;2023-04-29T01:26:45;95.97;;;35.63;;
19374;SDS011;9823;50.936;4.046;2023-04-29T01:32:12;109.20;;;42.07;;
19374;SDS011;9823;50.936;4.046;2023-04-29T01:34:53;119.70;;;44.57;;
19374;SDS011;9823;50.936;4.046;2023-04-29T01:40:15;101.33;;;37.30;;
19374;SDS011;9823;50.936;4.046;2023-04-29T01:42:45;95.23;;;35.80;;
19374;SDS011;9823;50.936;4.046;2023-04-29T01:45:14;99.77;;;39.37;;
19374;SDS011;9823;50.936;4.046;2023-04-29T01:47:45;107.43;;;38.87;;
19374;SDS011;9823;50.936;4.046;2023-04-29T01:50:11;100.80;;;39.47;;
19374;SDS011;9823;50.936;4.046;2023-04-29T01:52:37;96.37;;;38.20;;
19374;SDS011;9823;50.936;4.046;2023-04-29T01:55:04;106.27;;;39.70;;
19374;SDS011;9823;50.936;4.046;2023-04-29T01:57:30;115.17;;;42.80;;
19374;SDS011;9823;50.936;4.046;2023-04-29T01:59:57;95.00;;;33.53;;
19374;SDS011;9823;50.936;4.046;2023-04-29T02:02:23;87.17;;;35.10;;
19374;SDS011;9823;50.936;4.046;2023-04-29T02:04:49;54.07;;;27.47;;
19374;SDS011;9823;50.936;4.046;2023-04-29T02:07:15;58.53;;;26.43;;
19374;SDS011;9823;50.936;4.046;2023-04-29T02:09:41;60.03;;;27.43;;
19374;SDS011;9823;50.936;4.046;2023-04-29T02:12:07;53.13;;;26.70;;
19374;SDS011;9823;50.936;4.046;2023-04-29T02:14:33;58.37;;;28.87;;
19374;SDS011;9823;50.936;4.046;2023-04-29T02:17:02;65.03;;;31.70;;
19374;SDS011;9823;50.936;4.046;2023-04-29T02:19:28;53.80;;;26.27;;
19374;SDS011;9823;50.936;4.046;2023-04-29T02:21:54;52.53;;;26.43;;
19374;SDS011;9823;50.936;4.046;2023-04-29T02:24:20;47.73;;;25.67;;
19374;SDS011;9823;50.936;4.046;2023-04-29T02:26:46;47.60;;;25.37;;
19374;SDS011;9823;50.936;4.046;2023-04-29T02:29:12;47.60;;;25.87;;
19374;SDS011;9823;50.936;4.046;2023-04-29T02:31:38;45.93;;;24.17;;
19374;SDS011;9823;50.936;4.046;2023-04-29T02:34:07;39.07;;;22.30;;
19374;SDS011;9823;50.936;4.046;2023-04-29T02:36:33;42.00;;;21.17;;
19374;SDS011;9823;50.936;4.046;2023-04-29T02:38:59;41.30;;;23.43;;
19374;SDS011;9823;50.936;4.046;2023-04-29T02:41:31;46.60;;;24.97;;
19374;SDS011;9823;50.936;4.046;2023-04-29T02:43:57;45.83;;;25.63;;
19374;SDS011;9823;50.936;4.046;2023-04-29T02:46:24;49.07;;;26.50;;
19374;SDS011;9823;50.936;4.046;2023-04-29T02:48:50;54.50;;;27.20;;
19374;SDS011;9823;50.936;4.046;2023-04-29T02:51:16;60.13;;;28.13;;
19374;SDS011;9823;50.936;4.046;2023-04-29T02:53:45;54.80;;;28.23;;
19374;SDS011;9823;50.936;4.046;2023-04-29T02:56:11;45.67;;;24.40;;
19374;SDS011;9823;50.936;4.046;2023-04-29T02:58:37;101.77;;;35.70;;
19374;SDS011;9823;50.936;4.046;2023-04-29T03:01:03;81.17;;;31.97;;
19374;SDS011;9823;50.936;4.046;2023-04-29T03:03:29;48.87;;;25.30;;
19374;SDS011;9823;50.936;4.046;2023-04-29T03:05:55;70.30;;;27.23;;
19374;SDS011;9823;50.936;4.046;2023-04-29T03:08:21;84.17;;;33.13;;
19374;SDS011;9823;50.936;4.046;2023-04-29T03:10:47;45.87;;;22.53;;
19374;SDS011;9823;50.936;4.046;2023-04-29T03:13:13;71.27;;;26.97;;
19374;SDS011;9823;50.936;4.046;2023-04-29T03:15:39;51.07;;;22.27;;
19374;SDS011;9823;50.936;4.046;2023-04-29T03:18:05;67.47;;;26.83;;
19374;SDS011;9823;50.936;4.046;2023-04-29T03:20:36;47.30;;;21.47;;
19374;SDS011;9823;50.936;4.046;2023-04-29T03:23:02;31.40;;;17.53;;
19374;SDS011;9823;50.936;4.046;2023-04-29T03:25:29;29.10;;;15.70;;
19374;SDS011;9823;50.936;4.046;2023-04-29T03:27:55;26.67;;;15.50;;
19374;SDS011;9823;50.936;4.046;2023-04-29T03:30:21;33.13;;;17.53;;
19374;SDS011;9823;50.936;4.046;2023-04-29T03:32:47;39.23;;;18.87;;
19374;SDS011;9823;50.936;4.046;2023-04-29T03:35:13;33.47;;;17.53;;
19374;SDS011;9823;50.936;4.046;2023-04-29T03:37:41;57.87;;;24.57;;
19374;SDS011;9823;50.936;4.046;2023-04-29T03:40:08;40.30;;;19.40;;
19374;SDS011;9823;50.936;4.046;2023-04-29T03:42:37;54.23;;;23.53;;
19374;SDS011;9823;50.936;4.046;2023-04-29T03:45:03;37.03;;;20.97;;
19374;SDS011;9823;50.936;4.046;2023-04-29T03:47:32;95.37;;;30.60;;
19374;SDS011;9823;50.936;4.046;2023-04-29T03:49:58;52.83;;;23.67;;
19374;SDS011;9823;50.936;4.046;2023-04-29T03:52:29;74.40;;;28.50;;
19374;SDS011;9823;50.936;4.046;2023-04-29T03:55:00;51.50;;;23.70;;
19374;SDS011;9823;50.936;4.046;2023-04-29T03:57:26;55.27;;;25.83;;
19374;SDS011;9823;50.936;4.046;2023-04-29T03:59:52;70.30;;;26.73;;
19374;SDS011;9823;50.936;4.046;2023-04-29T04:02:18;52.60;;;24.60;;
19374;SDS011;9823;50.936;4.046;2023-04-29T04:04:44;56.97;;;25.47;;
19374;SDS011;9823;50.936;4.046;2023-04-29T04:07:13;86.03;;;30.53;;
19374;SDS011;9823;50.936;4.046;2023-04-29T04:09:39;68.27;;;27.30;;
19374;SDS011;9823;50.936;4.046;2023-04-29T04:12:07;55.33;;;24.03;;
19374;SDS011;9823;50.936;4.046;2023-04-29T04:14:38;45.70;;;21.90;;
19374;SDS011;9823;50.936;4.046;2023-04-29T04:17:04;54.17;;;23.33;;
19374;SDS011;9823;50.936;4.046;2023-04-29T04:19:30;147.77;;;44.43;;
19374;SDS011;9823;50.936;4.046;2023-04-29T04:21:57;68.40;;;26.83;;
19374;SDS011;9823;50.936;4.046;2023-04-29T04:24:23;75.70;;;28.27;;
19374;SDS011;9823;50.936;4.046;2023-04-29T04:26:49;67.80;;;26.67;;
19374;SDS011;9823;50.936;4.046;2023-04-29T04:29:15;73.60;;;28.13;;
19374;SDS011;9823;50.936;4.046;2023-04-29T04:31:41;79.23;;;28.60;;
19374;SDS011;9823;50.936;4.046;2023-04-29T04:34:10;99.77;;;34.27;;
19374;SDS011;9823;50.936;4.046;2023-04-29T04:36:36;58.33;;;22.03;;
19374;SDS011;9823;50.936;4.046;2023-04-29T04:39:02;68.90;;;24.93;;
19374;SDS011;9823;50.936;4.046;2023-04-29T04:41:28;59.30;;;24.40;;
19374;SDS011;9823;50.936;4.046;2023-04-29T04:43:56;49.30;;;18.93;;
19374;SDS011;9823;50.936;4.046;2023-04-29T04:46:22;33.53;;;14.87;;
19374;SDS011;9823;50.936;4.046;2023-04-29T04:48:48;50.23;;;18.67;;
19374;SDS011;9823;50.936;4.046;2023-04-29T04:51:14;41.33;;;14.97;;
19374;SDS011;9823;50.936;4.046;2023-04-29T04:53:40;74.17;;;23.70;;
19374;SDS011;9823;50.936;4.046;2023-04-29T04:56:08;84.53;;;25.23;;
19374;SDS011;9823;50.936;4.046;2023-04-29T04:58:34;41.70;;;17.00;;
19374;SDS011;9823;50.936;4.046;2023-04-29T05:01:00;47.13;;;17.70;;
19374;SDS011;9823;50.936;4.046;2023-04-29T05:03:27;36.80;;;16.30;;
19374;SDS011;9823;50.936;4.046;2023-04-29T05:05:53;33.20;;;15.47;;
19374;SDS011;9823;50.936;4.046;2023-04-29T05:08:19;47.33;;;18.67;;
19374;SDS011;9823;50.936;4.046;2023-04-29T05:10:45;122.77;;;38.23;;
19374;SDS011;9823;50.936;4.046;2023-04-29T05:13:14;32.90;;;17.03;;
19374;SDS011;9823;50.936;4.046;2023-04-29T05:15:40;82.80;;;28.00;;
19374;SDS011;9823;50.936;4.046;2023-04-29T05:18:07;57.80;;;21.73;;
19374;SDS011;9823;50.936;4.046;2023-04-29T05:20:33;49.43;;;21.60;;
19374;SDS011;9823;50.936;4.046;2023-04-29T05:22:59;55.17;;;22.87;;
19374;SDS011;9823;50.936;4.046;2023-04-29T05:25:25;53.77;;;22.60;;
19374;SDS011;9823;50.936;4.046;2023-04-29T05:27:51;37.40;;;18.80;;
19374;SDS011;9823;50.936;4.046;2023-04-29T05:30:21;43.87;;;19.53;;
19374;SDS011;9823;50.936;4.046;2023-04-29T05:32:47;43.33;;;21.27;;
19374;SDS011;9823;50.936;4.046;2023-04-29T05:35:13;33.97;;;19.57;;
19374;SDS011;9823;50.936;4.046;2023-04-29T05:37:39;34.60;;;20.23;;
19374;SDS011;9823;50.936;4.046;2023-04-29T05:40:08;34.23;;;19.30;;
19374;SDS011;9823;50.936;4.046;2023-04-29T05:42:34;34.23;;;18.57;;
19374;SDS011;9823;50.936;4.046;2023-04-29T05:45:00;34.87;;;19.47;;
19374;SDS011;9823;50.936;4.046;2023-04-29T05:47:26;37.90;;;18.47;;
19374;SDS011;9823;50.936;4.046;2023-04-29T05:49:52;35.40;;;19.67;;
19374;SDS011;9823;50.936;4.046;2023-04-29T05:52:18;33.77;;;17.90;;
19374;SDS011;9823;50.936;4.046;2023-04-29T05:54:50;28.43;;;16.53;;
19374;SDS011;9823;50.936;4.046;2023-04-29T05:57:16;37.27;;;19.23;;
19374;SDS011;9823;50.936;4.046;2023-04-29T05:59:45;35.13;;;17.53;;
19374;SDS011;9823;50.936;4.046;2023-04-29T06:02:11;50.07;;;21.97;;
19374;SDS011;9823;50.936;4.046;2023-04-29T06:04:39;27.47;;;17.20;;
19374;SDS011;9823;50.936;4.046;2023-04-29T06:07:05;35.30;;;16.63;;
19374;SDS011;9823;50.936;4.046;2023-04-29T06:09:33;74.50;;;28.80;;
19374;SDS011;9823;50.936;4.046;2023-04-29T06:11:59;111.37;;;34.00;;
19374;SDS011;9823;50.936;4.046;2023-04-29T06:14:27;44.60;;;21.17;;
19374;SDS011;9823;50.936;4.046;2023-04-29T06:16:53;64.03;;;24.07;;
19374;SDS011;9823;50.936;4.046;2023-04-29T06:19:21;65.57;;;24.87;;
19374;SDS011;9823;50.936;4.046;2023-04-29T06:21:48;48.73;;;20.93;;
19374;SDS011;9823;50.936;4.046;2023-04-29T06:24:15;65.27;;;25.17;;
19374;SDS011;9823;50.936;4.046;2023-04-29T06:26:41;62.60;;;23.23;;
19374;SDS011;9823;50.936;4.046;2023-04-29T06:29:07;114.07;;;35.70;;
19374;SDS011;9823;50.936;4.046;2023-04-29T06:31:33;49.10;;;21.67;;
19374;SDS011;9823;50.936;4.046;2023-04-29T06:33:59;64.10;;;24.27;;
19374;SDS011;9823;50.936;4.046;2023-04-29T06:36:25;81.50;;;29.97;;
19374;SDS011;9823;50.936;4.046;2023-04-29T06:38:52;45.80;;;20.43;;
19374;SDS011;9823;50.936;4.046;2023-04-29T06:41:18;72.93;;;26.97;;
19374;SDS011;9823;50.936;4.046;2023-04-29T06:43:44;47.97;;;22.53;;
19374;SDS011;9823;50.936;4.046;2023-04-29T06:46:10;45.33;;;20.10;;
19374;SDS011;9823;50.936;4.046;2023-04-29T06:48:38;37.40;;;18.37;;
19374;SDS011;9823;50.936;4.046;2023-04-29T06:51:04;45.83;;;18.97;;
19374;SDS011;9823;50.936;4.046;2023-04-29T06:53:31;35.67;;;17.97;;
19374;SDS011;9823;50.936;4.046;2023-04-29T06:55:59;29.90;;;17.33;;
19374;SDS011;9823;50.936;4.046;2023-04-29T06:58:28;29.17;;;17.10;;
19374;SDS011;9823;50.936;4.046;2023-04-29T07:00:54;29.97;;;16.67;;
19374;SDS011;9823;50.936;4.046;2023-04-29T07:03:20;30.47;;;18.10;;
19374;SDS011;9823;50.936;4.046;2023-04-29T07:05:46;69.30;;;27.13;;
19374;SDS011;9823;50.936;4.046;2023-04-29T07:08:14;35.27;;;19.07;;
19374;SDS011;9823;50.936;4.046;2023-04-29T07:10:40;35.20;;;19.47;;
19374;SDS011;9823;50.936;4.046;2023-04-29T07:13:06;41.73;;;19.07;;
19374;SDS011;9823;50.936;4.046;2023-04-29T07:15:33;33.17;;;18.83;;
19374;SDS011;9823;50.936;4.046;2023-04-29T07:18:02;35.83;;;18.43;;
19374;SDS011;9823;50.936;4.046;2023-04-29T07:20:29;33.67;;;18.13;;
19374;SDS011;9823;50.936;4.046;2023-04-29T07:22:55;37.93;;;20.07;;
19374;SDS011;9823;50.936;4.046;2023-04-29T07:25:21;30.87;;;17.97;;
19374;SDS011;9823;50.936;4.046;2023-04-29T07:27:47;41.07;;;20.13;;
19374;SDS011;9823;50.936;4.046;2023-04-29T07:30:15;49.70;;;22.03;;
19374;SDS011;9823;50.936;4.046;2023-04-29T07:32:41;35.07;;;19.03;;
19374;SDS011;9823;50.936;4.046;2023-04-29T07:35:10;40.97;;;19.93;;
19374;SDS011;9823;50.936;4.046;2023-04-29T07:37:36;64.00;;;23.80;;
19374;SDS011;9823;50.936;4.046;2023-04-29T07:40:02;51.13;;;22.30;;
19374;SDS011;9823;50.936;4.046;2023-04-29T07:42:28;60.97;;;25.70;;
19374;SDS011;9823;50.936;4.046;2023-04-29T07:44:54;50.07;;;22.87;;
19374;SDS011;9823;50.936;4.046;2023-04-29T07:47:20;65.33;;;27.47;;
19374;SDS011;9823;50.936;4.046;2023-04-29T07:49:46;64.87;;;24.90;;
19374;SDS011;9823;50.936;4.046;2023-04-29T07:52:20;75.43;;;27.73;;
19374;SDS011;9823;50.936;4.046;2023-04-29T07:54:52;52.07;;;22.00;;
19374;SDS011;9823;50.936;4.046;2023-04-29T07:57:25;53.70;;;24.40;;
19374;SDS011;9823;50.936;4.046;2023-04-29T07:59:51;48.43;;;20.00;;
19374;SDS011;9823;50.936;4.046;2023-04-29T08:02:20;33.80;;;18.10;;
19374;SDS011;9823;50.936;4.046;2023-04-29T08:04:47;37.47;;;19.17;;
19374;SDS011;9823;50.936;4.046;2023-04-29T08:07:14;31.43;;;18.87;;
19374;SDS011;9823;50.936;4.046;2023-04-29T08:09:40;32.87;;;19.17;;
19374;SDS011;9823;50.936;4.046;2023-04-29T08:12:07;39.83;;;18.73;;
19374;SDS011;9823;50.936;4.046;2023-04-29T08:14:33;33.30;;;19.17;;
19374;SDS011;9823;50.936;4.046;2023-04-29T08:16:59;29.47;;;18.33;;
19374;SDS011;9823;50.936;4.046;2023-04-29T08:19:25;28.07;;;18.87;;
19374;SDS011;9823;50.936;4.046;2023-04-29T08:21:57;29.23;;;18.17;;
19374;SDS011;9823;50.936;4.046;2023-04-29T08:24:25;29.53;;;19.20;;
19374;SDS011;9823;50.936;4.046;2023-04-29T08:26:51;31.90;;;19.70;;
19374;SDS011;9823;50.936;4.046;2023-04-29T08:29:18;30.43;;;18.77;;
19374;SDS011;9823;50.936;4.046;2023-04-29T08:31:44;27.73;;;17.77;;
19374;SDS011;9823;50.936;4.046;2023-04-29T08:34:10;46.53;;;21.73;;
19374;SDS011;9823;50.936;4.046;2023-04-29T08:36:39;37.00;;;18.63;;
19374;SDS011;9823;50.936;4.046;2023-04-29T08:39:07;53.13;;;21.93;;
19374;SDS011;9823;50.936;4.046;2023-04-29T08:41:33;35.20;;;19.87;;
19374;SDS011;9823;50.936;4.046;2023-04-29T08:44:01;29.77;;;18.00;;
19374;SDS011;9823;50.936;4.046;2023-04-29T08:46:27;35.60;;;19.97;;
19374;SDS011;9823;50.936;4.046;2023-04-29T08:48:54;63.57;;;25.27;;
19374;SDS011;9823;50.936;4.046;2023-04-29T08:51:20;64.43;;;24.47;;
19374;SDS011;9823;50.936;4.046;2023-04-29T08:53:49;60.77;;;26.67;;
19374;SDS011;9823;50.936;4.046;2023-04-29T08:56:15;71.33;;;26.67;;
19374;SDS011;9823;50.936;4.046;2023-04-29T08:58:44;60.37;;;23.27;;
19374;SDS011;9823;50.936;4.046;2023-04-29T09:01:10;72.47;;;29.20;;
19374;SDS011;9823;50.936;4.046;2023-04-29T09:06:10;64.37;;;28.37;;
19374;SDS011;9823;50.936;4.046;2023-04-29T09:08:36;39.33;;;21.33;;
19374;SDS011;9823;50.936;4.046;2023-04-29T09:11:03;48.30;;;21.03;;
19374;SDS011;9823;50.936;4.046;2023-04-29T09:13:30;28.17;;;17.40;;
19374;SDS011;9823;50.936;4.046;2023-04-29T09:15:58;32.80;;;18.90;;
19374;SDS011;9823;50.936;4.046;2023-04-29T09:21:15;65.50;;;28.30;;
19374;SDS011;9823;50.936;4.046;2023-04-29T09:23:42;49.27;;;22.87;;
19374;SDS011;9823;50.936;4.046;2023-04-29T09:26:10;26.67;;;16.73;;
19374;SDS011;9823;50.936;4.046;2023-04-29T09:28:36;39.77;;;21.23;;
19374;SDS011;9823;50.936;4.046;2023-04-29T09:31:05;26.43;;;16.70;;
19374;SDS011;9823;50.936;4.046;2023-04-29T09:33:48;32.70;;;18.00;;
19374;SDS011;9823;50.936;4.046;2023-04-29T09:39:05;60.03;;;25.00;;
19374;SDS011;9823;50.936;4.046;2023-04-29T09:41:35;43.03;;;19.37;;
19374;SDS011;9823;50.936;4.046;2023-04-29T09:44:04;37.50;;;21.93;;
19374;SDS011;9823;50.936;4.046;2023-04-29T09:46:31;25.60;;;16.47;;
19374;SDS011;9823;50.936;4.046;2023-04-29T09:49:04;33.53;;;17.93;;
19374;SDS011;9823;50.936;4.046;2023-04-29T09:51:51;33.90;;;17.53;;
19374;SDS011;9823;50.936;4.046;2023-04-29T09:54:21;56.33;;;23.77;;
19374;SDS011;9823;50.936;4.046;2023-04-29T09:56:50;38.73;;;19.07;;
19374;SDS011;9823;50.936;4.046;2023-04-29T09:59:19;74.17;;;30.20;;
19374;SDS011;9823;50.936;4.046;2023-04-29T10:01:50;78.87;;;27.33;;
19374;SDS011;9823;50.936;4.046;2023-04-29T10:04:18;48.50;;;23.20;;
19374;SDS011;9823;50.936;4.046;2023-04-29T10:06:46;50.70;;;22.60;;
19374;SDS011;9823;50.936;4.046;2023-04-29T10:09:15;33.97;;;18.30;;
19374;SDS011;9823;50.936;4.046;2023-04-29T10:11:45;34.00;;;17.80;;
19374;SDS011;9823;50.936;4.046;2023-04-29T10:14:12;48.57;;;22.90;;
19374;SDS011;9823;50.936;4.046;2023-04-29T10:19:14;49.23;;;21.83;;
19374;SDS011;9823;50.936;4.046;2023-04-29T10:21:40;34.27;;;18.73;;
19374;SDS011;9823;50.936;4.046;2023-04-29T10:24:06;41.10;;;19.73;;
19374;SDS011;9823;50.936;4.046;2023-04-29T10:26:33;98.80;;;31.50;;
19374;SDS011;9823;50.936;4.046;2023-04-29T10:29:03;27.90;;;18.10;;
19374;SDS011;9823;50.936;4.046;2023-04-29T10:31:38;28.03;;;18.87;;
19374;SDS011;9823;50.936;4.046;2023-04-29T10:34:06;45.07;;;23.87;;
19374;SDS011;9823;50.936;4.046;2023-04-29T10:36:34;29.77;;;18.50;;
19374;SDS011;9823;50.936;4.046;2023-04-29T10:39:02;80.63;;;30.00;;
19374;SDS011;9823;50.936;4.046;2023-04-29T10:41:36;61.00;;;26.30;;
19374;SDS011;9823;50.936;4.046;2023-04-29T10:44:08;50.83;;;22.83;;
19374;SDS011;9823;50.936;4.046;2023-04-29T10:46:35;27.20;;;16.37;;
19374;SDS011;9823;50.936;4.046;2023-04-29T10:49:05;45.87;;;21.77;;
19374;SDS011;9823;50.936;4.046;2023-04-29T10:56:52;38.80;;;20.50;;
19374;SDS011;9823;50.936;4.046;2023-04-29T10:59:43;23.87;;;16.20;;
19374;SDS011;9823;50.936;4.046;2023-04-29T11:02:06;28.93;;;17.40;;
19374;SDS011;9823;50.936;4.046;2023-04-29T11:04:32;30.37;;;17.83;;
19374;SDS011;9823;50.936;4.046;2023-04-29T11:06:58;26.53;;;16.07;;
19374;SDS011;9823;50.936;4.046;2023-04-29T11:09:27;43.47;;;20.70;;
19374;SDS011;9823;50.936;4.046;2023-04-29T11:14:48;20.53;;;14.27;;
19374;SDS011;9823;50.936;4.046;2023-04-29T11:17:15;58.57;;;25.47;;
19374;SDS011;9823;50.936;4.046;2023-04-29T11:19:47;27.50;;;14.83;;
19374;SDS011;9823;50.936;4.046;2023-04-29T11:24:54;66.63;;;24.70;;
19374;SDS011;9823;50.936;4.046;2023-04-29T11:27:21;74.97;;;28.20;;
19374;SDS011;9823;50.936;4.046;2023-04-29T11:29:50;27.30;;;16.00;;
19374;SDS011;9823;50.936;4.046;2023-04-29T11:32:19;28.27;;;16.90;;
19374;SDS011;9823;50.936;4.046;2023-04-29T11:34:46;63.57;;;27.67;;
19374;SDS011;9823;50.936;4.046;2023-04-29T11:37:12;57.90;;;24.93;;
19374;SDS011;9823;50.936;4.046;2023-04-29T11:39:38;25.60;;;14.90;;
19374;SDS011;9823;50.936;4.046;2023-04-29T11:42:07;42.53;;;20.73;;
19374;SDS011;9823;50.936;4.046;2023-04-29T11:44:33;40.33;;;20.07;;
19374;SDS011;9823;50.936;4.046;2023-04-29T11:47:05;28.90;;;17.93;;
19374;SDS011;9823;50.936;4.046;2023-04-29T11:49:32;41.60;;;20.93;;
19374;SDS011;9823;50.936;4.046;2023-04-29T11:51:58;21.17;;;15.90;;
19374;SDS011;9823;50.936;4.046;2023-04-29T11:54:28;65.07;;;25.30;;
19374;SDS011;9823;50.936;4.046;2023-04-29T11:56:55;45.20;;;19.63;;
19374;SDS011;9823;50.936;4.046;2023-04-29T11:59:21;24.93;;;15.73;;
19374;SDS011;9823;50.936;4.046;2023-04-29T12:01:48;26.10;;;16.93;;
19374;SDS011;9823;50.936;4.046;2023-04-29T12:04:14;62.67;;;25.23;;
19374;SDS011;9823;50.936;4.046;2023-04-29T12:06:40;33.00;;;17.67;;
19374;SDS011;9823;50.936;4.046;2023-04-29T12:09:06;22.87;;;14.63;;
19374;SDS011;9823;50.936;4.046;2023-04-29T12:11:32;30.43;;;17.87;;
19374;SDS011;9823;50.936;4.046;2023-04-29T12:13:59;29.63;;;17.30;;
19374;SDS011;9823;50.936;4.046;2023-04-29T12:16:27;27.90;;;16.67;;
19374;SDS011;9823;50.936;4.046;2023-04-29T12:18:54;34.07;;;19.53;;
19374;SDS011;9823;50.936;4.046;2023-04-29T12:21:21;28.43;;;16.00;;
19374;SDS011;9823;50.936;4.046;2023-04-29T12:23:47;26.83;;;16.00;;
19374;SDS011;9823;50.936;4.046;2023-04-29T12:26:13;73.13;;;26.87;;
19374;SDS011;9823;50.936;4.046;2023-04-29T12:28:39;71.33;;;27.53;;
19374;SDS011;9823;50.936;4.046;2023-04-29T12:31:07;35.00;;;18.30;;
19374;SDS011;9823;50.936;4.046;2023-04-29T12:33:35;95.37;;;33.53;;
19374;SDS011;9823;50.936;4.046;2023-04-29T12:36:01;26.50;;;16.73;;
19374;SDS011;9823;50.936;4.046;2023-04-29T12:38:30;20.00;;;14.40;;
19374;SDS011;9823;50.936;4.046;2023-04-29T12:41:00;24.70;;;15.57;;
19374;SDS011;9823;50.936;4.046;2023-04-29T12:43:31;33.73;;;20.60;;
19374;SDS011;9823;50.936;4.046;2023-04-29T12:46:07;30.00;;;18.77;;
19374;SDS011;9823;50.936;4.046;2023-04-29T12:48:34;18.50;;;13.80;;
19374;SDS011;9823;50.936;4.046;2023-04-29T12:51:10;27.70;;;15.60;;
19374;SDS011;9823;50.936;4.046;2023-04-29T12:53:39;48.03;;;20.93;;
19374;SDS011;9823;50.936;4.046;2023-04-29T12:56:07;37.87;;;19.60;;
19374;SDS011;9823;50.936;4.046;2023-04-29T12:58:33;46.33;;;20.50;;
19374;SDS011;9823;50.936;4.046;2023-04-29T13:01:01;51.20;;;20.93;;
19374;SDS011;9823;50.936;4.046;2023-04-29T13:03:27;24.57;;;15.57;;
19374;SDS011;9823;50.936;4.046;2023-04-29T13:05:53;52.27;;;22.10;;
19374;SDS011;9823;50.936;4.046;2023-04-29T13:08:19;36.83;;;21.77;;
19374;SDS011;9823;50.936;4.046;2023-04-29T13:10:48;64.27;;;24.10;;
19374;SDS011;9823;50.936;4.046;2023-04-29T13:13:14;84.87;;;28.50;;
19374;SDS011;9823;50.936;4.046;2023-04-29T13:15:42;40.80;;;20.20;;
19374;SDS011;9823;50.936;4.046;2023-04-29T13:18:08;16.83;;;13.97;;
19374;SDS011;9823;50.936;4.046;2023-04-29T13:20:37;28.13;;;18.43;;
19374;SDS011;9823;50.936;4.046;2023-04-29T13:23:03;117.27;;;39.43;;
19374;SDS011;9823;50.936;4.046;2023-04-29T13:25:29;57.90;;;25.17;;
19374;SDS011;9823;50.936;4.046;2023-04-29T13:27:55;24.97;;;15.57;;
19374;SDS011;9823;50.936;4.046;2023-04-29T13:30:21;37.30;;;18.40;;
19374;SDS011;9823;50.936;4.046;2023-04-29T13:32:47;22.43;;;15.33;;
19374;SDS011;9823;50.936;4.046;2023-04-29T13:35:13;35.37;;;20.20;;
19374;SDS011;9823;50.936;4.046;2023-04-29T13:37:39;24.43;;;17.80;;
19374;SDS011;9823;50.936;4.046;2023-04-29T13:40:06;24.40;;;16.03;;
19374;SDS011;9823;50.936;4.046;2023-04-29T13:42:32;45.63;;;21.83;;
19374;SDS011;9823;50.936;4.046;2023-04-29T13:44:58;58.17;;;27.67;;
19374;SDS011;9823;50.936;4.046;2023-04-29T13:47:27;37.10;;;20.33;;
19374;SDS011;9823;50.936;4.046;2023-04-29T13:49:53;21.70;;;15.20;;
19374;SDS011;9823;50.936;4.046;2023-04-29T13:52:19;40.67;;;20.47;;
19374;SDS011;9823;50.936;4.046;2023-04-29T13:54:45;79.90;;;28.63;;
19374;SDS011;9823;50.936;4.046;2023-04-29T13:57:11;90.13;;;31.77;;
19374;SDS011;9823;50.936;4.046;2023-04-29T13:59:37;44.00;;;22.20;;
19374;SDS011;9823;50.936;4.046;2023-04-29T14:02:03;46.43;;;22.67;;
19374;SDS011;9823;50.936;4.046;2023-04-29T14:04:29;64.67;;;27.40;;
19374;SDS011;9823;50.936;4.046;2023-04-29T14:06:55;44.47;;;21.50;;
19374;SDS011;9823;50.936;4.046;2023-04-29T14:09:21;37.97;;;20.70;;
19374;SDS011;9823;50.936;4.046;2023-04-29T14:11:48;40.17;;;20.90;;
19374;SDS011;9823;50.936;4.046;2023-04-29T14:14:15;47.53;;;24.87;;
19374;SDS011;9823;50.936;4.046;2023-04-29T14:16:48;60.30;;;22.67;;
19374;SDS011;9823;50.936;4.046;2023-04-29T14:19:14;27.43;;;17.40;;
19374;SDS011;9823;50.936;4.046;2023-04-29T14:21:40;49.37;;;23.43;;
19374;SDS011;9823;50.936;4.046;2023-04-29T14:24:06;41.97;;;20.00;;
19374;SDS011;9823;50.936;4.046;2023-04-29T14:26:32;39.30;;;20.47;;
19374;SDS011;9823;50.936;4.046;2023-04-29T14:28:58;39.13;;;23.37;;
19374;SDS011;9823;50.936;4.046;2023-04-29T14:31:25;66.27;;;25.93;;
19374;SDS011;9823;50.936;4.046;2023-04-29T14:33:57;80.60;;;29.00;;
19374;SDS011;9823;50.936;4.046;2023-04-29T14:36:24;30.83;;;16.67;;
19374;SDS011;9823;50.936;4.046;2023-04-29T14:38:52;27.40;;;16.60;;
19374;SDS011;9823;50.936;4.046;2023-04-29T14:41:19;26.37;;;16.23;;
19374;SDS011;9823;50.936;4.046;2023-04-29T14:43:49;30.43;;;16.93;;
19374;SDS011;9823;50.936;4.046;2023-04-29T14:46:16;44.50;;;21.67;;
19374;SDS011;9823;50.936;4.046;2023-04-29T14:48:42;23.60;;;15.60;;
19374;SDS011;9823;50.936;4.046;2023-04-29T14:51:08;20.87;;;14.70;;
19374;SDS011;9823;50.936;4.046;2023-04-29T14:53:37;28.33;;;15.47;;
19374;SDS011;9823;50.936;4.046;2023-04-29T14:56:03;27.47;;;16.53;;
19374;SDS011;9823;50.936;4.046;2023-04-29T14:58:29;22.07;;;14.63;;
19374;SDS011;9823;50.936;4.046;2023-04-29T15:00:55;38.90;;;18.23;;
19374;SDS011;9823;50.936;4.046;2023-04-29T15:03:21;29.07;;;15.73;;
19374;SDS011;9823;50.936;4.046;2023-04-29T15:05:50;30.47;;;18.57;;